sensor_id;sensor_type;location;lat;lon;timestamp;P1;durP1;ratioP1;P2;durP2;ratioP2
47053;SDS011;32811;52.382;5.270;2023-02-15T00:01:57;28.88;;;19.15;;
47053;SDS011;32811;52.382;5.270;2023-02-15T00:04:30;26.90;;;16.95;;
47053;SDS011;32811;52.382;5.270;2023-02-15T00:07:15;21.60;;;13.52;;
47053;SDS011;32811;52.382;5.270;2023-02-15T00:09:47;29.67;;;18.35;;
47053;SDS011;32811;52.382;5.270;2023-02-15T00:12:15;26.08;;;16.92;;
47053;SDS011;32811;52.382;5.270;2023-02-15T00:14:46;28.08;;;17.80;;
47053;SDS011;32811;52.382;5.270;2023-02-15T00:17:23;27.60;;;16.90;;
47053;SDS011;32811;52.382;5.270;2023-02-15T00:19:59;27.63;;;17.17;;
47053;SDS011;32811;52.382;5.270;2023-02-15T00:22:25;33.03;;;17.58;;
47053;SDS011;32811;52.382;5.270;2023-02-15T00:24:55;27.90;;;17.30;;
47053;SDS011;32811;52.382;5.270;2023-02-15T00:27:22;28.10;;;17.45;;
47053;SDS011;32811;52.382;5.270;2023-02-15T00:29:53;23.02;;;16.23;;
47053;SDS011;32811;52.382;5.270;2023-02-15T00:32:20;26.23;;;17.10;;
47053;SDS011;32811;52.382;5.270;2023-02-15T00:34:52;26.85;;;16.50;;
47053;SDS011;32811;52.382;5.270;2023-02-15T00:37:20;28.60;;;18.83;;
47053;SDS011;32811;52.382;5.270;2023-02-15T00:39:54;27.90;;;17.55;;
47053;SDS011;32811;52.382;5.270;2023-02-15T00:42:20;26.55;;;16.23;;
47053;SDS011;32811;52.382;5.270;2023-02-15T00:44:48;25.55;;;17.08;;
47053;SDS011;32811;52.382;5.270;2023-02-15T00:47:15;30.60;;;18.30;;
47053;SDS011;32811;52.382;5.270;2023-02-15T00:49:41;26.30;;;16.73;;
47053;SDS011;32811;52.382;5.270;2023-02-15T00:52:14;26.15;;;17.55;;
47053;SDS011;32811;52.382;5.270;2023-02-15T00:54:40;27.48;;;17.00;;
47053;SDS011;32811;52.382;5.270;2023-02-15T00:57:07;24.20;;;16.77;;
47053;SDS011;32811;52.382;5.270;2023-02-15T00:59:33;25.25;;;16.40;;
47053;SDS011;32811;52.382;5.270;2023-02-15T01:02:00;24.77;;;16.38;;
47053;SDS011;32811;52.382;5.270;2023-02-15T01:04:27;24.55;;;16.20;;
47053;SDS011;32811;52.382;5.270;2023-02-15T01:06:54;28.65;;;17.77;;
47053;SDS011;32811;52.382;5.270;2023-02-15T01:09:20;27.45;;;16.08;;
47053;SDS011;32811;52.382;5.270;2023-02-15T01:11:47;26.40;;;17.05;;
47053;SDS011;32811;52.382;5.270;2023-02-15T01:14:13;24.77;;;16.85;;
47053;SDS011;32811;52.382;5.270;2023-02-15T01:16:40;26.83;;;15.77;;
47053;SDS011;32811;52.382;5.270;2023-02-15T01:19:07;21.67;;;15.60;;
47053;SDS011;32811;52.382;5.270;2023-02-15T01:21:33;22.13;;;16.58;;
47053;SDS011;32811;52.382;5.270;2023-02-15T01:24:01;25.38;;;16.00;;
47053;SDS011;32811;52.382;5.270;2023-02-15T01:26:27;26.67;;;16.20;;
47053;SDS011;32811;52.382;5.270;2023-02-15T01:28:54;23.83;;;15.63;;
47053;SDS011;32811;52.382;5.270;2023-02-15T01:31:20;28.52;;;18.27;;
47053;SDS011;32811;52.382;5.270;2023-02-15T01:33:47;25.73;;;15.88;;
47053;SDS011;32811;52.382;5.270;2023-02-15T01:36:14;24.00;;;16.23;;
47053;SDS011;32811;52.382;5.270;2023-02-15T01:38:43;33.17;;;17.75;;
47053;SDS011;32811;52.382;5.270;2023-02-15T01:41:10;25.20;;;17.67;;
47053;SDS011;32811;52.382;5.270;2023-02-15T01:43:47;31.50;;;18.15;;
47053;SDS011;32811;52.382;5.270;2023-02-15T01:46:15;23.83;;;15.50;;
47053;SDS011;32811;52.382;5.270;2023-02-15T01:48:48;28.08;;;16.75;;
47053;SDS011;32811;52.382;5.270;2023-02-15T01:51:20;27.52;;;16.92;;
47053;SDS011;32811;52.382;5.270;2023-02-15T01:53:58;26.33;;;16.27;;
47053;SDS011;32811;52.382;5.270;2023-02-15T01:56:29;24.15;;;16.08;;
47053;SDS011;32811;52.382;5.270;2023-02-15T01:59:00;24.25;;;15.88;;
47053;SDS011;32811;52.382;5.270;2023-02-15T02:01:32;24.42;;;16.73;;
47053;SDS011;32811;52.382;5.270;2023-02-15T02:04:04;30.15;;;16.83;;
47053;SDS011;32811;52.382;5.270;2023-02-15T02:06:49;28.13;;;17.58;;
47053;SDS011;32811;52.382;5.270;2023-02-15T02:09:17;26.50;;;17.35;;
47053;SDS011;32811;52.382;5.270;2023-02-15T02:11:44;28.13;;;16.55;;
47053;SDS011;32811;52.382;5.270;2023-02-15T02:14:14;25.95;;;15.75;;
47053;SDS011;32811;52.382;5.270;2023-02-15T02:34:14;23.98;;;14.48;;
47053;SDS011;32811;52.382;5.270;2023-02-15T02:37:07;25.92;;;17.02;;
47053;SDS011;32811;52.382;5.270;2023-02-15T02:44:51;25.60;;;15.55;;
47053;SDS011;32811;52.382;5.270;2023-02-15T02:47:30;24.33;;;15.27;;
47053;SDS011;32811;52.382;5.270;2023-02-15T02:50:06;29.55;;;15.70;;
47053;SDS011;32811;52.382;5.270;2023-02-15T02:52:41;23.05;;;14.52;;
47053;SDS011;32811;52.382;5.270;2023-02-15T02:55:20;26.35;;;14.70;;
47053;SDS011;32811;52.382;5.270;2023-02-15T02:57:55;23.55;;;13.35;;
47053;SDS011;32811;52.382;5.270;2023-02-15T03:05:59;19.55;;;13.35;;
47053;SDS011;32811;52.382;5.270;2023-02-15T03:08:31;22.67;;;14.60;;
47053;SDS011;32811;52.382;5.270;2023-02-15T03:11:02;24.73;;;14.48;;
47053;SDS011;32811;52.382;5.270;2023-02-15T03:13:30;22.00;;;14.10;;
47053;SDS011;32811;52.382;5.270;2023-02-15T03:15:58;22.60;;;14.45;;
47053;SDS011;32811;52.382;5.270;2023-02-15T03:18:48;18.70;;;13.23;;
47053;SDS011;32811;52.382;5.270;2023-02-15T03:21:26;19.70;;;13.00;;
47053;SDS011;32811;52.382;5.270;2023-02-15T03:23:59;19.98;;;13.07;;
47053;SDS011;32811;52.382;5.270;2023-02-15T03:26:31;22.30;;;14.80;;
47053;SDS011;32811;52.382;5.270;2023-02-15T03:29:00;21.63;;;14.85;;
47053;SDS011;32811;52.382;5.270;2023-02-15T03:31:31;22.38;;;13.43;;
47053;SDS011;32811;52.382;5.270;2023-02-15T03:34:02;21.02;;;13.27;;
47053;SDS011;32811;52.382;5.270;2023-02-15T03:36:41;20.98;;;13.50;;
47053;SDS011;32811;52.382;5.270;2023-02-15T03:39:18;19.02;;;13.18;;
47053;SDS011;32811;52.382;5.270;2023-02-15T03:42:43;24.35;;;13.90;;
47053;SDS011;32811;52.382;5.270;2023-02-15T03:45:15;22.45;;;13.32;;
47053;SDS011;32811;52.382;5.270;2023-02-15T03:47:48;23.27;;;14.40;;
47053;SDS011;32811;52.382;5.270;2023-02-15T03:50:19;20.25;;;14.50;;
47053;SDS011;32811;52.382;5.270;2023-02-15T03:53:09;24.92;;;15.82;;
47053;SDS011;32811;52.382;5.270;2023-02-15T03:55:39;25.40;;;15.02;;
47053;SDS011;32811;52.382;5.270;2023-02-15T03:58:06;26.05;;;14.70;;
47053;SDS011;32811;52.382;5.270;2023-02-15T04:00:55;23.55;;;14.50;;
47053;SDS011;32811;52.382;5.270;2023-02-15T04:03:51;25.95;;;15.65;;
47053;SDS011;32811;52.382;5.270;2023-02-15T04:06:29;22.55;;;13.43;;
47053;SDS011;32811;52.382;5.270;2023-02-15T04:08:55;21.58;;;14.13;;
47053;SDS011;32811;52.382;5.270;2023-02-15T04:11:40;24.90;;;15.07;;
47053;SDS011;32811;52.382;5.270;2023-02-15T04:14:07;34.90;;;16.75;;
47053;SDS011;32811;52.382;5.270;2023-02-15T04:16:52;26.05;;;14.57;;
47053;SDS011;32811;52.382;5.270;2023-02-15T04:19:18;29.15;;;15.25;;
47053;SDS011;32811;52.382;5.270;2023-02-15T04:22:04;28.52;;;16.63;;
47053;SDS011;32811;52.382;5.270;2023-02-15T04:24:49;24.15;;;15.07;;
47053;SDS011;32811;52.382;5.270;2023-02-15T04:27:34;24.05;;;14.82;;
47053;SDS011;32811;52.382;5.270;2023-02-15T04:30:01;26.08;;;15.00;;
47053;SDS011;32811;52.382;5.270;2023-02-15T04:32:28;23.25;;;14.23;;
47053;SDS011;32811;52.382;5.270;2023-02-15T04:34:55;24.10;;;15.80;;
47053;SDS011;32811;52.382;5.270;2023-02-15T04:37:21;27.92;;;15.63;;
47053;SDS011;32811;52.382;5.270;2023-02-15T04:39:48;25.38;;;15.25;;
47053;SDS011;32811;52.382;5.270;2023-02-15T04:42:16;27.75;;;16.52;;
47053;SDS011;32811;52.382;5.270;2023-02-15T04:44:42;27.42;;;16.25;;
47053;SDS011;32811;52.382;5.270;2023-02-15T04:47:09;24.52;;;15.93;;
47053;SDS011;32811;52.382;5.270;2023-02-15T04:49:35;25.92;;;15.75;;
47053;SDS011;32811;52.382;5.270;2023-02-15T04:52:02;25.38;;;14.85;;
47053;SDS011;32811;52.382;5.270;2023-02-15T04:54:29;25.15;;;15.80;;
47053;SDS011;32811;52.382;5.270;2023-02-15T04:56:55;26.42;;;16.48;;
47053;SDS011;32811;52.382;5.270;2023-02-15T04:59:22;27.00;;;15.65;;
47053;SDS011;32811;52.382;5.270;2023-02-15T05:01:49;27.35;;;15.38;;
47053;SDS011;32811;52.382;5.270;2023-02-15T05:04:16;28.45;;;15.95;;
47053;SDS011;32811;52.382;5.270;2023-02-15T05:06:43;26.30;;;15.25;;
47053;SDS011;32811;52.382;5.270;2023-02-15T05:09:10;30.13;;;16.42;;
47053;SDS011;32811;52.382;5.270;2023-02-15T05:11:37;28.27;;;17.05;;
47053;SDS011;32811;52.382;5.270;2023-02-15T05:14:04;32.72;;;16.42;;
47053;SDS011;32811;52.382;5.270;2023-02-15T05:16:31;26.50;;;17.25;;
47053;SDS011;32811;52.382;5.270;2023-02-15T05:18:58;26.60;;;16.27;;
47053;SDS011;32811;52.382;5.270;2023-02-15T05:21:24;29.45;;;16.17;;
47053;SDS011;32811;52.382;5.270;2023-02-15T05:23:52;30.83;;;17.30;;
47053;SDS011;32811;52.382;5.270;2023-02-15T05:26:20;25.42;;;15.00;;
47053;SDS011;32811;52.382;5.270;2023-02-15T05:29:07;25.35;;;16.08;;
47053;SDS011;32811;52.382;5.270;2023-02-15T05:31:34;23.58;;;16.25;;
47053;SDS011;32811;52.382;5.270;2023-02-15T05:34:02;25.80;;;15.98;;
47053;SDS011;32811;52.382;5.270;2023-02-15T05:36:29;26.08;;;15.68;;
47053;SDS011;32811;52.382;5.270;2023-02-15T05:38:55;26.42;;;16.30;;
47053;SDS011;32811;52.382;5.270;2023-02-15T05:41:22;27.33;;;15.90;;
47053;SDS011;32811;52.382;5.270;2023-02-15T05:43:48;24.95;;;16.02;;
47053;SDS011;32811;52.382;5.270;2023-02-15T05:46:15;25.35;;;16.50;;
47053;SDS011;32811;52.382;5.270;2023-02-15T05:48:42;26.75;;;15.00;;
47053;SDS011;32811;52.382;5.270;2023-02-15T05:51:09;29.15;;;15.40;;
47053;SDS011;32811;52.382;5.270;2023-02-15T05:53:39;23.40;;;14.35;;
47053;SDS011;32811;52.382;5.270;2023-02-15T05:56:07;28.13;;;16.45;;
47053;SDS011;32811;52.382;5.270;2023-02-15T05:58:36;27.40;;;15.07;;
47053;SDS011;32811;52.382;5.270;2023-02-15T06:01:11;26.77;;;15.40;;
47053;SDS011;32811;52.382;5.270;2023-02-15T06:03:39;30.90;;;15.07;;
47053;SDS011;32811;52.382;5.270;2023-02-15T06:06:06;27.73;;;15.75;;
47053;SDS011;32811;52.382;5.270;2023-02-15T06:08:33;23.20;;;15.25;;
47053;SDS011;32811;52.382;5.270;2023-02-15T06:11:01;25.05;;;14.07;;
47053;SDS011;32811;52.382;5.270;2023-02-15T06:13:28;22.77;;;13.43;;
47053;SDS011;32811;52.382;5.270;2023-02-15T06:15:55;25.48;;;16.02;;
47053;SDS011;32811;52.382;5.270;2023-02-15T06:18:21;30.40;;;17.25;;
47053;SDS011;32811;52.382;5.270;2023-02-15T06:20:48;24.33;;;15.15;;
47053;SDS011;32811;52.382;5.270;2023-02-15T06:23:15;27.60;;;15.10;;
47053;SDS011;32811;52.382;5.270;2023-02-15T06:25:42;27.83;;;15.55;;
47053;SDS011;32811;52.382;5.270;2023-02-15T06:28:10;24.75;;;16.17;;
47053;SDS011;32811;52.382;5.270;2023-02-15T06:30:36;24.33;;;14.57;;
47053;SDS011;32811;52.382;5.270;2023-02-15T06:33:03;30.27;;;16.35;;
47053;SDS011;32811;52.382;5.270;2023-02-15T06:35:30;21.92;;;14.05;;
47053;SDS011;32811;52.382;5.270;2023-02-15T06:37:56;27.30;;;16.25;;
47053;SDS011;32811;52.382;5.270;2023-02-15T06:40:23;27.45;;;14.88;;
47053;SDS011;32811;52.382;5.270;2023-02-15T06:42:49;28.45;;;15.93;;
47053;SDS011;32811;52.382;5.270;2023-02-15T06:45:16;28.65;;;15.30;;
47053;SDS011;32811;52.382;5.270;2023-02-15T06:47:43;29.13;;;15.98;;
47053;SDS011;32811;52.382;5.270;2023-02-15T06:50:09;29.05;;;17.70;;
47053;SDS011;32811;52.382;5.270;2023-02-15T06:52:36;28.67;;;16.60;;
47053;SDS011;32811;52.382;5.270;2023-02-15T06:55:03;31.70;;;15.82;;
47053;SDS011;32811;52.382;5.270;2023-02-15T06:57:30;29.80;;;16.45;;
47053;SDS011;32811;52.382;5.270;2023-02-15T06:59:57;23.95;;;15.32;;
47053;SDS011;32811;52.382;5.270;2023-02-15T07:02:24;29.27;;;16.88;;
47053;SDS011;32811;52.382;5.270;2023-02-15T07:04:51;30.52;;;17.10;;
47053;SDS011;32811;52.382;5.270;2023-02-15T07:07:18;26.23;;;15.77;;
47053;SDS011;32811;52.382;5.270;2023-02-15T07:09:44;30.42;;;16.15;;
47053;SDS011;32811;52.382;5.270;2023-02-15T07:12:11;31.40;;;16.50;;
47053;SDS011;32811;52.382;5.270;2023-02-15T07:14:56;29.42;;;16.35;;
47053;SDS011;32811;52.382;5.270;2023-02-15T07:17:24;32.22;;;17.88;;
47053;SDS011;32811;52.382;5.270;2023-02-15T07:20:09;28.10;;;15.48;;
47053;SDS011;32811;52.382;5.270;2023-02-15T07:22:38;29.92;;;16.58;;
47053;SDS011;32811;52.382;5.270;2023-02-15T07:25:05;29.17;;;15.35;;
47053;SDS011;32811;52.382;5.270;2023-02-15T07:27:33;28.00;;;17.80;;
47053;SDS011;32811;52.382;5.270;2023-02-15T07:30:00;28.73;;;17.13;;
47053;SDS011;32811;52.382;5.270;2023-02-15T07:32:28;27.98;;;17.60;;
47053;SDS011;32811;52.382;5.270;2023-02-15T07:34:56;27.00;;;16.77;;
47053;SDS011;32811;52.382;5.270;2023-02-15T07:37:23;29.67;;;15.77;;
47053;SDS011;32811;52.382;5.270;2023-02-15T07:39:50;28.77;;;16.90;;
47053;SDS011;32811;52.382;5.270;2023-02-15T07:42:17;29.63;;;16.98;;
47053;SDS011;32811;52.382;5.270;2023-02-15T07:44:45;31.88;;;17.80;;
47053;SDS011;32811;52.382;5.270;2023-02-15T07:47:12;37.75;;;17.55;;
47053;SDS011;32811;52.382;5.270;2023-02-15T07:49:39;32.88;;;18.20;;
47053;SDS011;32811;52.382;5.270;2023-02-15T07:52:06;34.58;;;18.38;;
47053;SDS011;32811;52.382;5.270;2023-02-15T07:54:32;40.97;;;19.15;;
47053;SDS011;32811;52.382;5.270;2023-02-15T07:57:00;32.38;;;20.02;;
47053;SDS011;32811;52.382;5.270;2023-02-15T07:59:28;35.22;;;19.67;;
47053;SDS011;32811;52.382;5.270;2023-02-15T08:01:56;32.10;;;19.13;;
47053;SDS011;32811;52.382;5.270;2023-02-15T08:04:28;29.85;;;18.20;;
47053;SDS011;32811;52.382;5.270;2023-02-15T08:06:55;32.00;;;18.40;;
47053;SDS011;32811;52.382;5.270;2023-02-15T08:09:23;31.10;;;18.58;;
47053;SDS011;32811;52.382;5.270;2023-02-15T08:11:49;36.60;;;18.60;;
47053;SDS011;32811;52.382;5.270;2023-02-15T08:14:17;37.00;;;19.15;;
47053;SDS011;32811;52.382;5.270;2023-02-15T08:16:46;37.25;;;19.38;;
47053;SDS011;32811;52.382;5.270;2023-02-15T08:22:01;32.47;;;18.10;;
47053;SDS011;32811;52.382;5.270;2023-02-15T08:24:34;35.60;;;20.30;;
47053;SDS011;32811;52.382;5.270;2023-02-15T08:27:08;26.50;;;14.93;;
47053;SDS011;32811;52.382;5.270;2023-02-15T08:29:36;30.30;;;17.75;;
47053;SDS011;32811;52.382;5.270;2023-02-15T08:32:05;35.75;;;21.92;;
47053;SDS011;32811;52.382;5.270;2023-02-15T08:34:35;37.72;;;21.77;;
47053;SDS011;32811;52.382;5.270;2023-02-15T08:37:03;38.63;;;22.52;;
47053;SDS011;32811;52.382;5.270;2023-02-15T08:39:32;36.28;;;21.42;;
47053;SDS011;32811;52.382;5.270;2023-02-15T08:41:59;41.65;;;21.52;;
47053;SDS011;32811;52.382;5.270;2023-02-15T08:44:26;35.45;;;20.05;;
47053;SDS011;32811;52.382;5.270;2023-02-15T08:46:52;34.75;;;21.33;;
47053;SDS011;32811;52.382;5.270;2023-02-15T08:49:21;37.25;;;21.13;;
47053;SDS011;32811;52.382;5.270;2023-02-15T08:51:48;40.95;;;22.63;;
47053;SDS011;32811;52.382;5.270;2023-02-15T08:54:16;36.40;;;19.05;;
47053;SDS011;32811;52.382;5.270;2023-02-15T08:56:44;38.63;;;21.20;;
47053;SDS011;32811;52.382;5.270;2023-02-15T08:59:13;32.50;;;20.65;;
47053;SDS011;32811;52.382;5.270;2023-02-15T09:01:42;43.72;;;22.63;;
47053;SDS011;32811;52.382;5.270;2023-02-15T09:04:09;39.20;;;23.10;;
47053;SDS011;32811;52.382;5.270;2023-02-15T09:06:37;36.35;;;21.98;;
47053;SDS011;32811;52.382;5.270;2023-02-15T09:09:05;40.08;;;22.63;;
47053;SDS011;32811;52.382;5.270;2023-02-15T09:11:36;36.65;;;22.95;;
47053;SDS011;32811;52.382;5.270;2023-02-15T09:14:06;38.25;;;21.88;;
47053;SDS011;32811;52.382;5.270;2023-02-15T09:16:36;41.50;;;22.70;;
47053;SDS011;32811;52.382;5.270;2023-02-15T09:19:04;42.58;;;24.00;;
47053;SDS011;32811;52.382;5.270;2023-02-15T09:21:31;43.90;;;24.15;;
47053;SDS011;32811;52.382;5.270;2023-02-15T09:24:03;37.03;;;23.40;;
47053;SDS011;32811;52.382;5.270;2023-02-15T09:26:32;40.47;;;23.65;;
47053;SDS011;32811;52.382;5.270;2023-02-15T09:29:02;45.38;;;24.67;;
47053;SDS011;32811;52.382;5.270;2023-02-15T09:31:36;48.92;;;25.70;;
47053;SDS011;32811;52.382;5.270;2023-02-15T09:36:33;38.47;;;21.67;;
47053;SDS011;32811;52.382;5.270;2023-02-15T09:39:04;44.15;;;24.33;;
47053;SDS011;32811;52.382;5.270;2023-02-15T09:47:02;34.17;;;22.30;;
47053;SDS011;32811;52.382;5.270;2023-02-15T09:58:15;41.63;;;23.25;;
47053;SDS011;32811;52.382;5.270;2023-02-15T10:00:56;41.90;;;22.92;;
47053;SDS011;32811;52.382;5.270;2023-02-15T10:06:38;43.15;;;23.30;;
47053;SDS011;32811;52.382;5.270;2023-02-15T10:25:32;35.67;;;21.80;;
47053;SDS011;32811;52.382;5.270;2023-02-15T10:28:10;39.00;;;21.58;;
47053;SDS011;32811;52.382;5.270;2023-02-15T10:30:51;39.80;;;23.13;;
47053;SDS011;32811;52.382;5.270;2023-02-15T10:33:39;37.30;;;21.95;;
47053;SDS011;32811;52.382;5.270;2023-02-15T10:39:02;39.67;;;23.77;;
47053;SDS011;32811;52.382;5.270;2023-02-15T10:44:47;43.75;;;22.55;;
47053;SDS011;32811;52.382;5.270;2023-02-15T10:47:46;43.92;;;22.98;;
47053;SDS011;32811;52.382;5.270;2023-02-15T10:50:19;37.63;;;22.58;;
47053;SDS011;32811;52.382;5.270;2023-02-15T11:03:36;37.70;;;23.45;;
47053;SDS011;32811;52.382;5.270;2023-02-15T11:06:09;41.13;;;23.33;;
47053;SDS011;32811;52.382;5.270;2023-02-15T11:08:40;41.78;;;25.60;;
47053;SDS011;32811;52.382;5.270;2023-02-15T11:11:31;39.88;;;23.60;;
47053;SDS011;32811;52.382;5.270;2023-02-15T11:14:02;45.08;;;22.85;;
47053;SDS011;32811;52.382;5.270;2023-02-15T11:16:50;43.80;;;25.88;;
47053;SDS011;32811;52.382;5.270;2023-02-15T11:21:57;36.97;;;23.40;;
47053;SDS011;32811;52.382;5.270;2023-02-15T11:24:26;48.78;;;23.33;;
47053;SDS011;32811;52.382;5.270;2023-02-15T11:32:35;39.60;;;22.40;;
47053;SDS011;32811;52.382;5.270;2023-02-15T11:37:48;41.28;;;22.70;;
47053;SDS011;32811;52.382;5.270;2023-02-15T11:40:45;40.17;;;22.23;;
47053;SDS011;32811;52.382;5.270;2023-02-15T11:43:26;40.60;;;21.75;;
47053;SDS011;32811;52.382;5.270;2023-02-15T11:46:00;36.40;;;20.55;;
47053;SDS011;32811;52.382;5.270;2023-02-15T11:48:27;45.90;;;21.85;;
47053;SDS011;32811;52.382;5.270;2023-02-15T11:50:57;37.80;;;20.65;;
47053;SDS011;32811;52.382;5.270;2023-02-15T11:53:25;41.88;;;20.10;;
47053;SDS011;32811;52.382;5.270;2023-02-15T11:55:57;46.92;;;20.45;;
47053;SDS011;32811;52.382;5.270;2023-02-15T12:01:01;32.28;;;19.40;;
47053;SDS011;32811;52.382;5.270;2023-02-15T12:06:35;33.20;;;18.95;;
47053;SDS011;32811;52.382;5.270;2023-02-15T12:11:49;34.83;;;20.70;;
47053;SDS011;32811;52.382;5.270;2023-02-15T12:14:16;36.67;;;19.30;;
47053;SDS011;32811;52.382;5.270;2023-02-15T12:16:44;40.10;;;21.85;;
47053;SDS011;32811;52.382;5.270;2023-02-15T12:22:03;41.60;;;21.67;;
47053;SDS011;32811;52.382;5.270;2023-02-15T12:24:32;38.22;;;21.42;;
47053;SDS011;32811;52.382;5.270;2023-02-15T12:29:46;38.20;;;20.73;;
47053;SDS011;32811;52.382;5.270;2023-02-15T12:32:31;44.35;;;22.15;;
47053;SDS011;32811;52.382;5.270;2023-02-15T12:35:09;36.85;;;21.27;;
47053;SDS011;32811;52.382;5.270;2023-02-15T12:37:40;37.88;;;20.98;;
47053;SDS011;32811;52.382;5.270;2023-02-15T12:40:24;37.60;;;21.73;;
47053;SDS011;32811;52.382;5.270;2023-02-15T12:42:56;39.25;;;22.67;;
47053;SDS011;32811;52.382;5.270;2023-02-15T12:45:25;44.53;;;22.70;;
47053;SDS011;32811;52.382;5.270;2023-02-15T12:50:40;40.17;;;22.17;;
47053;SDS011;32811;52.382;5.270;2023-02-15T12:53:19;38.55;;;22.25;;
47053;SDS011;32811;52.382;5.270;2023-02-15T12:55:53;38.70;;;22.75;;
47053;SDS011;32811;52.382;5.270;2023-02-15T12:58:23;39.22;;;23.35;;
47053;SDS011;32811;52.382;5.270;2023-02-15T13:06:24;41.83;;;22.70;;
47053;SDS011;32811;52.382;5.270;2023-02-15T13:08:57;41.70;;;23.63;;
47053;SDS011;32811;52.382;5.270;2023-02-15T13:11:32;41.60;;;23.73;;
47053;SDS011;32811;52.382;5.270;2023-02-15T13:14:04;39.40;;;22.38;;
47053;SDS011;32811;52.382;5.270;2023-02-15T13:16:44;41.08;;;22.83;;
47053;SDS011;32811;52.382;5.270;2023-02-15T13:21:50;41.75;;;23.02;;
47053;SDS011;32811;52.382;5.270;2023-02-15T13:27:12;37.22;;;22.05;;
47053;SDS011;32811;52.382;5.270;2023-02-15T13:29:46;39.25;;;21.95;;
47053;SDS011;32811;52.382;5.270;2023-02-15T13:32:30;39.33;;;22.02;;
47053;SDS011;32811;52.382;5.270;2023-02-15T13:35:00;42.60;;;22.35;;
47053;SDS011;32811;52.382;5.270;2023-02-15T13:41:03;39.70;;;23.27;;
47053;SDS011;32811;52.382;5.270;2023-02-15T13:43:27;42.38;;;22.83;;
47053;SDS011;32811;52.382;5.270;2023-02-15T13:57:54;40.13;;;24.88;;
47053;SDS011;32811;52.382;5.270;2023-02-15T14:00:28;47.58;;;26.20;;
47053;SDS011;32811;52.382;5.270;2023-02-15T14:03:24;41.72;;;23.60;;
47053;SDS011;32811;52.382;5.270;2023-02-15T14:06:08;46.45;;;25.50;;
47053;SDS011;32811;52.382;5.270;2023-02-15T14:08:51;48.20;;;25.73;;
47053;SDS011;32811;52.382;5.270;2023-02-15T14:11:34;42.83;;;25.65;;
47053;SDS011;32811;52.382;5.270;2023-02-15T14:17:26;42.78;;;25.85;;
47053;SDS011;32811;52.382;5.270;2023-02-15T14:20:02;41.35;;;24.83;;
47053;SDS011;32811;52.382;5.270;2023-02-15T14:22:46;41.88;;;24.88;;
47053;SDS011;32811;52.382;5.270;2023-02-15T14:25:34;47.83;;;26.30;;
47053;SDS011;32811;52.382;5.270;2023-02-15T14:31:00;42.00;;;24.90;;
47053;SDS011;32811;52.382;5.270;2023-02-15T14:33:37;45.75;;;27.08;;
47053;SDS011;32811;52.382;5.270;2023-02-15T14:36:07;51.33;;;27.73;;
47053;SDS011;32811;52.382;5.270;2023-02-15T14:41:15;50.08;;;28.30;;
47053;SDS011;32811;52.382;5.270;2023-02-15T14:46:39;42.83;;;25.55;;
47053;SDS011;32811;52.382;5.270;2023-02-15T15:02:19;49.45;;;26.48;;
47053;SDS011;32811;52.382;5.270;2023-02-15T15:07:21;41.58;;;25.35;;
47053;SDS011;32811;52.382;5.270;2023-02-15T15:09:58;47.03;;;26.35;;
47053;SDS011;32811;52.382;5.270;2023-02-15T15:15:15;40.67;;;24.40;;
47053;SDS011;32811;52.382;5.270;2023-02-15T15:18:01;41.75;;;25.80;;
47053;SDS011;32811;52.382;5.270;2023-02-15T15:25:42;42.85;;;24.60;;
47053;SDS011;32811;52.382;5.270;2023-02-15T15:31:46;47.67;;;24.95;;
47053;SDS011;32811;52.382;5.270;2023-02-15T15:35:00;43.03;;;23.40;;
47053;SDS011;32811;52.382;5.270;2023-02-15T15:47:53;42.63;;;24.10;;
47053;SDS011;32811;52.382;5.270;2023-02-15T15:50:41;43.80;;;24.83;;
47053;SDS011;32811;52.382;5.270;2023-02-15T15:53:16;50.05;;;26.02;;
47053;SDS011;32811;52.382;5.270;2023-02-15T15:55:47;42.55;;;24.70;;
47053;SDS011;32811;52.382;5.270;2023-02-15T15:58:17;41.90;;;23.40;;
47053;SDS011;32811;52.382;5.270;2023-02-15T16:05:49;47.60;;;27.60;;
47053;SDS011;32811;52.382;5.270;2023-02-15T16:08:29;44.88;;;26.73;;
47053;SDS011;32811;52.382;5.270;2023-02-15T16:11:23;49.03;;;26.65;;
47053;SDS011;32811;52.382;5.270;2023-02-15T16:13:50;46.53;;;25.08;;
47053;SDS011;32811;52.382;5.270;2023-02-15T16:16:22;42.60;;;25.15;;
47053;SDS011;32811;52.382;5.270;2023-02-15T16:18:51;45.15;;;24.42;;
47053;SDS011;32811;52.382;5.270;2023-02-15T16:21:22;47.95;;;26.63;;
47053;SDS011;32811;52.382;5.270;2023-02-15T16:24:18;41.20;;;24.48;;
47053;SDS011;32811;52.382;5.270;2023-02-15T16:29:15;44.50;;;26.23;;
47053;SDS011;32811;52.382;5.270;2023-02-15T16:31:43;44.50;;;26.48;;
47053;SDS011;32811;52.382;5.270;2023-02-15T16:34:22;47.53;;;26.45;;
47053;SDS011;32811;52.382;5.270;2023-02-15T16:36:49;46.08;;;25.70;;
47053;SDS011;32811;52.382;5.270;2023-02-15T16:39:17;53.35;;;25.98;;
47053;SDS011;32811;52.382;5.270;2023-02-15T16:41:46;47.40;;;26.85;;
47053;SDS011;32811;52.382;5.270;2023-02-15T16:44:16;43.63;;;27.20;;
47053;SDS011;32811;52.382;5.270;2023-02-15T16:46:46;48.13;;;26.55;;
47053;SDS011;32811;52.382;5.270;2023-02-15T16:49:24;45.50;;;26.45;;
47053;SDS011;32811;52.382;5.270;2023-02-15T16:51:59;48.20;;;27.35;;
47053;SDS011;32811;52.382;5.270;2023-02-15T16:54:31;50.65;;;28.15;;
47053;SDS011;32811;52.382;5.270;2023-02-15T16:56:59;44.92;;;25.48;;
47053;SDS011;32811;52.382;5.270;2023-02-15T16:59:37;48.40;;;27.60;;
47053;SDS011;32811;52.382;5.270;2023-02-15T17:02:16;49.17;;;26.90;;
47053;SDS011;32811;52.382;5.270;2023-02-15T17:07:32;48.00;;;26.92;;
47053;SDS011;32811;52.382;5.270;2023-02-15T17:09:59;57.05;;;30.67;;
47053;SDS011;32811;52.382;5.270;2023-02-15T17:17:54;54.58;;;28.38;;
47053;SDS011;32811;52.382;5.270;2023-02-15T17:20:22;51.78;;;27.38;;
47053;SDS011;32811;52.382;5.270;2023-02-15T17:22:50;52.30;;;27.75;;
47053;SDS011;32811;52.382;5.270;2023-02-15T17:25:19;50.97;;;27.25;;
47053;SDS011;32811;52.382;5.270;2023-02-15T17:27:50;46.83;;;27.65;;
47053;SDS011;32811;52.382;5.270;2023-02-15T17:30:53;45.17;;;25.10;;
47053;SDS011;32811;52.382;5.270;2023-02-15T17:41:25;50.65;;;28.40;;
47053;SDS011;32811;52.382;5.270;2023-02-15T17:43:55;51.53;;;27.60;;
47053;SDS011;32811;52.382;5.270;2023-02-15T17:46:23;57.05;;;29.42;;
47053;SDS011;32811;52.382;5.270;2023-02-15T17:48:51;51.42;;;27.25;;
47053;SDS011;32811;52.382;5.270;2023-02-15T17:51:21;54.35;;;29.20;;
47053;SDS011;32811;52.382;5.270;2023-02-15T17:53:48;67.68;;;32.28;;
47053;SDS011;32811;52.382;5.270;2023-02-15T17:56:34;48.35;;;28.27;;
47053;SDS011;32811;52.382;5.270;2023-02-15T17:59:03;54.13;;;29.77;;
47053;SDS011;32811;52.382;5.270;2023-02-15T18:01:33;59.80;;;30.77;;
47053;SDS011;32811;52.382;5.270;2023-02-15T18:04:19;49.08;;;29.67;;
47053;SDS011;32811;52.382;5.270;2023-02-15T18:07:07;57.03;;;28.77;;
47053;SDS011;32811;52.382;5.270;2023-02-15T18:09:53;51.22;;;27.40;;
47053;SDS011;32811;52.382;5.270;2023-02-15T18:12:38;44.80;;;26.48;;
47053;SDS011;32811;52.382;5.270;2023-02-15T18:15:06;45.20;;;25.60;;
47053;SDS011;32811;52.382;5.270;2023-02-15T18:17:38;51.47;;;28.30;;
47053;SDS011;32811;52.382;5.270;2023-02-15T18:22:43;49.90;;;26.15;;